createdAt,value
2022-09-21T00:01:18.740Z,10.96
2022-09-21T00:03:45.858Z,10.96
2022-09-21T00:06:17.246Z,10.97
2022-09-21T00:08:44.443Z,10.96
2022-09-21T00:11:15.193Z,10.90
2022-09-21T00:13:42.389Z,10.91
2022-09-21T00:16:10.385Z,10.94
2022-09-21T00:18:37.630Z,10.97
2022-09-21T00:21:08.987Z,10.91
2022-09-21T00:23:36.484Z,10.96
2022-09-21T00:26:10.752Z,10.96
2022-09-21T00:28:37.982Z,10.91
2022-09-21T00:31:05.640Z,10.89
2022-09-21T00:33:32.931Z,10.94
2022-09-21T00:36:07.324Z,10.93
2022-09-21T00:38:34.442Z,10.91
2022-09-21T00:41:01.345Z,10.87
2022-09-21T00:43:28.373Z,10.91
2022-09-21T00:46:00.551Z,10.90
2022-09-21T00:48:28.183Z,10.83
2022-09-21T00:50:55.654Z,10.81
2022-09-21T00:53:22.910Z,10.83
2022-09-21T00:55:52.235Z,10.85
2022-09-21T00:58:21.115Z,10.80
2022-09-21T01:00:48.240Z,10.76
2022-09-21T01:03:17.374Z,10.80
2022-09-21T01:05:44.284Z,10.78
2022-09-21T01:08:12.490Z,10.73
2022-09-21T01:11:25.743Z,10.73
2022-09-21T01:14:20.313Z,10.69
2022-09-21T01:17:14.961Z,10.67
2022-09-21T01:19:58.965Z,10.66
2022-09-21T01:22:33.707Z,10.47
2022-09-21T01:25:32.340Z,10.55
2022-09-21T01:28:18.068Z,10.56
2022-09-21T01:30:48.960Z,10.55
2022-09-21T01:33:20.681Z,10.54
2022-09-21T01:35:49.459Z,10.53
2022-09-21T01:38:20.031Z,10.59
2022-09-21T01:40:50.480Z,10.56
2022-09-21T01:43:25.510Z,10.56
2022-09-21T01:45:54.770Z,10.53
2022-09-21T01:48:22.513Z,10.50
2022-09-21T01:50:54.308Z,10.51
2022-09-21T01:53:37.507Z,10.50
2022-09-21T01:56:12.030Z,10.44
2022-09-21T01:59:08.843Z,10.47
2022-09-21T02:01:38.764Z,10.39
2022-09-21T02:04:09.628Z,10.40
2022-09-21T02:06:36.636Z,10.42
2022-09-21T02:09:03.595Z,10.40
2022-09-21T02:11:30.520Z,10.36
2022-09-21T02:13:57.471Z,10.38
2022-09-21T02:16:39.805Z,10.32
2022-09-21T02:19:44.300Z,10.33
2022-09-21T02:22:18.908Z,10.26
2022-09-21T02:24:48.152Z,10.25
2022-09-21T02:27:24.409Z,10.30
2022-09-21T02:29:52.917Z,10.30
2022-09-21T02:32:28.930Z,10.29
2022-09-21T02:35:04.131Z,10.25
2022-09-21T02:38:18.260Z,10.23
2022-09-21T02:40:54.197Z,10.21
2022-09-21T02:43:39.406Z,10.22
2022-09-21T02:46:12.463Z,10.11
2022-09-21T02:48:43.415Z,10.24
2022-09-21T02:51:12.046Z,10.18
2022-09-21T02:53:39.130Z,10.23
2022-09-21T02:56:07.514Z,10.20
2022-09-21T02:58:36.293Z,10.23
2022-09-21T03:01:08.799Z,10.22
2022-09-21T03:03:35.960Z,10.22
2022-09-21T03:06:03.175Z,10.23
2022-09-21T03:08:30.613Z,10.20
2022-09-21T03:10:57.984Z,10.18
2022-09-21T03:13:25.051Z,10.19
2022-09-21T03:16:04.999Z,10.24
2022-09-21T03:18:32.065Z,10.12
2022-09-21T03:20:59.249Z,10.18
2022-09-21T03:23:26.192Z,10.19
2022-09-21T03:25:53.115Z,10.24
2022-09-21T03:28:20.177Z,10.23
2022-09-21T03:30:48.798Z,10.24
2022-09-21T03:33:16.198Z,10.14
2022-09-21T03:35:43.218Z,10.13
2022-09-21T03:38:10.199Z,10.25
2022-09-21T03:40:37.182Z,10.20
2022-09-21T03:43:04.198Z,10.25
2022-09-21T03:45:31.076Z,10.24
2022-09-21T03:47:58.491Z,10.26
2022-09-21T03:50:26.607Z,10.27
2022-09-21T03:52:53.548Z,10.27
2022-09-21T03:55:20.517Z,10.23
2022-09-21T03:57:48.218Z,10.22
2022-09-21T04:00:15.349Z,10.25
2022-09-21T04:02:42.569Z,10.26
2022-09-21T04:05:10.625Z,10.19
2022-09-21T04:07:37.987Z,10.20
2022-09-21T04:10:06.172Z,10.25
2022-09-21T04:12:34.836Z,10.17
2022-09-21T04:15:02.086Z,10.19
2022-09-21T04:17:29.520Z,10.23
2022-09-21T04:19:56.889Z,10.07
2022-09-21T04:22:25.018Z,10.22
2022-09-21T04:24:52.178Z,10.23
2022-09-21T04:27:19.149Z,10.23
2022-09-21T04:29:46.108Z,10.20
2022-09-21T04:32:12.981Z,10.23
2022-09-21T04:34:40.336Z,10.23
2022-09-21T04:37:11.985Z,10.24
2022-09-21T04:39:38.932Z,10.24
2022-09-21T04:42:06.204Z,10.24
2022-09-21T04:44:33.192Z,10.24
2022-09-21T04:47:00.501Z,10.21
2022-09-21T04:49:27.541Z,10.25
2022-09-21T04:51:54.443Z,10.21
2022-09-21T04:54:21.472Z,10.27
2022-09-21T04:56:48.387Z,10.26
2022-09-21T04:59:15.344Z,10.23
2022-09-21T05:01:42.311Z,10.27
2022-09-21T05:04:09.298Z,10.24
2022-09-21T05:06:36.162Z,10.27
2022-09-21T05:09:21.796Z,10.27
2022-09-21T05:11:48.745Z,10.26
2022-09-21T05:14:15.752Z,10.26
2022-09-21T05:16:42.940Z,10.26
2022-09-21T05:19:09.833Z,10.27
2022-09-21T05:21:37.274Z,10.25
2022-09-21T05:24:04.397Z,10.28
2022-09-21T05:26:31.320Z,10.27
2022-09-21T05:28:58.655Z,10.23
2022-09-21T05:31:44.536Z,10.27
2022-09-21T05:34:38.369Z,10.26
2022-09-21T05:37:13.272Z,10.26
2022-09-21T05:39:40.912Z,10.28
2022-09-21T05:42:10.496Z,10.30
2022-09-21T05:44:37.778Z,10.30
2022-09-21T05:47:13.296Z,10.33
2022-09-21T05:49:59.803Z,10.32
2022-09-21T05:52:39.949Z,10.35
2022-09-21T05:55:35.591Z,10.35
2022-09-21T05:58:10.478Z,10.36
2022-09-21T06:00:47.955Z,10.40
2022-09-21T06:03:23.955Z,10.42
2022-09-21T06:05:51.228Z,10.43
2022-09-21T06:08:18.176Z,10.46
2022-09-21T06:10:45.493Z,10.45
2022-09-21T06:13:12.399Z,10.53
2022-09-21T06:15:39.436Z,10.55
2022-09-21T06:18:07.079Z,10.57
2022-09-21T06:20:34.130Z,10.62
2022-09-21T06:23:09.007Z,10.63
2022-09-21T06:25:35.977Z,10.67
2022-09-21T06:28:05.885Z,10.71
2022-09-21T06:30:34.739Z,10.72
2022-09-21T06:33:02.338Z,10.74
2022-09-21T06:35:29.571Z,10.68
2022-09-21T06:38:06.895Z,10.83
2022-09-21T06:40:35.337Z,10.87
2022-09-21T06:43:02.738Z,10.91
2022-09-21T06:45:30.197Z,10.92
2022-09-21T06:47:57.205Z,11.02
2022-09-21T06:50:24.255Z,11.06
2022-09-21T06:52:51.532Z,11.11
2022-09-21T06:55:18.600Z,11.09
2022-09-21T06:57:45.728Z,11.16
2022-09-21T07:00:15.705Z,11.22
2022-09-21T07:02:44.688Z,11.27
2022-09-21T07:05:12.388Z,11.23
2022-09-21T07:07:40.583Z,11.34
2022-09-21T07:10:12.385Z,11.26
2022-09-21T07:12:41.933Z,11.42
2022-09-21T07:15:10.518Z,11.48
2022-09-21T07:17:39.897Z,11.53
2022-09-21T07:20:08.489Z,11.47
2022-09-21T07:22:35.694Z,11.61
2022-09-21T07:25:04.459Z,11.63
2022-09-21T07:27:31.914Z,11.65
2022-09-21T07:29:58.843Z,11.63
2022-09-21T07:32:28.616Z,11.73
2022-09-21T07:34:57.247Z,11.83
2022-09-21T07:37:27.509Z,11.90
2022-09-21T07:39:54.936Z,11.89
2022-09-21T07:42:22.926Z,11.96
2022-09-21T07:44:51.043Z,12.05
2022-09-21T07:47:19.581Z,12.10
2022-09-21T07:49:47.256Z,12.13
2022-09-21T07:52:15.632Z,12.13
2022-09-21T07:54:42.638Z,12.22
2022-09-21T07:57:27.920Z,12.13
2022-09-21T07:59:58.501Z,12.30
2022-09-21T08:02:25.642Z,12.38
2022-09-21T08:04:53.749Z,12.45
2022-09-21T08:07:20.774Z,12.48
2022-09-21T08:09:49.588Z,12.51
2022-09-21T08:12:18.868Z,12.63
2022-09-21T08:14:45.943Z,12.75
2022-09-21T08:17:12.944Z,12.80
2022-09-21T08:19:40.023Z,12.80
2022-09-21T08:22:08.523Z,12.83
2022-09-21T08:24:36.062Z,12.93
2022-09-21T08:27:05.477Z,12.98
2022-09-21T08:29:32.423Z,13.01
2022-09-21T08:31:59.475Z,13.06
2022-09-21T08:34:26.646Z,13.13
2022-09-21T08:36:55.742Z,13.12
2022-09-21T08:39:24.139Z,13.11
2022-09-21T08:45:31.392Z,13.19
2022-09-21T08:47:59.204Z,13.17
2022-09-21T08:50:39.793Z,13.24
2022-09-21T08:53:18.611Z,13.21
2022-09-21T08:55:45.693Z,13.17
2022-09-21T08:58:23.544Z,13.29
2022-09-21T09:01:15.841Z,13.30
2022-09-21T09:04:11.971Z,13.30
2022-09-21T09:06:42.727Z,13.33
2022-09-21T09:09:28.582Z,13.39
2022-09-21T09:12:21.879Z,13.47
2022-09-21T09:18:29.185Z,13.58
2022-09-21T09:21:09.965Z,13.67
2022-09-21T09:23:41.905Z,13.76
2022-09-21T09:26:14.418Z,13.86
2022-09-21T09:29:26.433Z,13.86
2022-09-21T09:32:05.051Z,13.94
2022-09-21T09:34:35.593Z,14.03
2022-09-21T09:37:21.175Z,13.96
2022-09-21T09:39:54.448Z,14.13
2022-09-21T09:42:52.725Z,14.18
2022-09-21T09:45:55.761Z,14.21
2022-09-21T09:48:29.070Z,14.27
2022-09-21T09:50:56.327Z,14.29
2022-09-21T09:53:25.021Z,14.28
2022-09-21T09:55:53.489Z,14.40
2022-09-21T09:58:39.306Z,14.50
2022-09-21T10:04:07.176Z,14.43
2022-09-21T10:06:34.676Z,14.53
2022-09-21T10:11:47.339Z,14.52
2022-09-21T10:14:23.546Z,14.68
2022-09-21T10:16:52.580Z,14.64
2022-09-21T10:19:24.754Z,14.89
2022-09-21T10:24:42.599Z,15.06
2022-09-21T10:27:14.013Z,15.12
2022-09-21T10:29:42.735Z,15.31
2022-09-21T10:32:14.784Z,15.44
2022-09-21T10:37:46.197Z,15.60
2022-09-21T10:40:22.781Z,15.71
2022-09-21T10:42:51.255Z,15.81
2022-09-21T10:45:30.636Z,15.87
2022-09-21T10:47:57.669Z,15.94
2022-09-21T10:50:37.866Z,16.03
2022-09-21T10:53:11.069Z,16.07
2022-09-21T10:56:15.972Z,16.11
2022-09-21T10:59:21.917Z,16.08
2022-09-21T11:01:53.797Z,15.98
2022-09-21T11:04:45.232Z,16.04
2022-09-21T11:07:22.754Z,16.10
2022-09-21T11:10:12.297Z,16.04
2022-09-21T11:12:51.002Z,16.09
2022-09-21T11:15:23.792Z,16.10
2022-09-21T11:18:15.438Z,16.00
2022-09-21T11:20:54.987Z,15.93
2022-09-21T11:23:38.855Z,15.96
2022-09-21T11:26:10.898Z,15.96
2022-09-21T11:28:47.224Z,15.89
2022-09-21T11:31:45.361Z,15.86
2022-09-21T11:34:47.180Z,15.81
2022-09-21T11:37:20.321Z,15.82
2022-09-21T11:39:50.668Z,15.82
2022-09-21T11:42:26.090Z,15.88
2022-09-21T11:44:56.072Z,15.82
2022-09-21T11:47:50.511Z,15.94
2022-09-21T11:54:00.112Z,15.80
2022-09-21T11:56:49.579Z,15.92
2022-09-21T11:59:25.566Z,16.04
2022-09-21T12:02:00.419Z,16.08
2022-09-21T12:04:42.194Z,16.15
2022-09-21T12:07:34.461Z,16.21
2022-09-21T12:10:13.476Z,16.16
2022-09-21T12:12:43.637Z,16.31
2022-09-21T12:15:33.337Z,16.30
2022-09-21T12:18:18.717Z,16.43
2022-09-21T12:20:48.602Z,16.43
2022-09-21T12:23:23.511Z,16.60
2022-09-21T12:25:53.466Z,16.58
2022-09-21T12:28:29.027Z,16.69
2022-09-21T12:31:00.779Z,16.59
2022-09-21T12:33:37.947Z,16.75
2022-09-21T12:36:27.607Z,16.60
2022-09-21T12:39:08.401Z,16.58
2022-09-21T12:42:05.780Z,16.64
2022-09-21T12:44:33.933Z,16.56
2022-09-21T12:47:09.791Z,16.63
2022-09-21T12:49:45.040Z,16.55
2022-09-21T12:52:21.652Z,16.55
2022-09-21T12:55:00.492Z,16.67
2022-09-21T12:58:04.436Z,16.64
2022-09-21T13:00:46.510Z,16.49
2022-09-21T13:03:44.083Z,16.55
2022-09-21T13:06:47.008Z,16.41
2022-09-21T13:09:15.559Z,16.52
2022-09-21T13:11:52.724Z,16.51
2022-09-21T13:14:19.708Z,16.40
2022-09-21T13:16:46.674Z,16.44
2022-09-21T13:19:13.575Z,16.43
2022-09-21T13:21:40.723Z,16.36
2022-09-21T13:24:13.897Z,16.23
2022-09-21T13:26:44.747Z,16.24
2022-09-21T13:29:17.793Z,16.34
2022-09-21T13:32:24.032Z,16.29
2022-09-21T13:34:51.691Z,16.26
2022-09-21T13:37:18.586Z,16.29
2022-09-21T13:40:04.319Z,16.35
2022-09-21T13:42:37.547Z,16.33
2022-09-21T13:45:13.870Z,16.30
2022-09-21T13:47:47.630Z,16.30
2022-09-21T13:50:33.617Z,16.29
2022-09-21T13:53:02.719Z,16.26
2022-09-21T13:55:33.993Z,16.23
2022-09-21T13:58:04.899Z,16.15
2022-09-21T14:00:42.105Z,16.14
2022-09-21T14:03:22.646Z,16.16
2022-09-21T14:05:52.208Z,16.12
2022-09-21T14:08:26.400Z,16.14
2022-09-21T14:10:56.311Z,16.08
2022-09-21T14:13:32.678Z,16.07
2022-09-21T14:16:51.212Z,16.12
2022-09-21T14:19:18.616Z,16.07
2022-09-21T14:22:03.969Z,16.07
2022-09-21T14:24:51.073Z,16.06
2022-09-21T14:27:26.807Z,16.05
2022-09-21T14:30:06.291Z,16.04
2022-09-21T14:32:50.851Z,15.99
2022-09-21T14:35:24.643Z,15.95
2022-09-21T14:38:34.233Z,15.94
2022-09-21T14:41:03.859Z,15.80
2022-09-21T14:43:36.502Z,15.92
2022-09-21T14:46:30.992Z,15.84
2022-09-21T14:49:20.167Z,15.81
2022-09-21T14:52:04.279Z,15.81
2022-09-21T14:54:45.537Z,15.80
2022-09-21T14:57:24.699Z,15.75
2022-09-21T15:00:04.942Z,15.73
2022-09-21T15:02:34.769Z,15.62
2022-09-21T15:05:28.626Z,15.67
2022-09-21T15:08:35.421Z,15.60
2022-09-21T15:11:26.531Z,15.52
2022-09-21T15:14:22.822Z,15.48
2022-09-21T15:16:51.892Z,15.48
2022-09-21T15:19:18.990Z,15.40
2022-09-21T15:21:56.046Z,15.41
2022-09-21T15:24:56.367Z,15.20
2022-09-21T15:27:32.196Z,15.20
2022-09-21T15:30:37.684Z,15.25
2022-09-21T15:33:08.044Z,15.04
2022-09-21T15:35:38.131Z,15.02
2022-09-21T15:38:25.892Z,15.12
2022-09-21T15:40:52.978Z,15.04
2022-09-21T15:43:21.058Z,15.11
2022-09-21T15:45:58.076Z,15.15
2022-09-21T15:48:38.722Z,15.04
2022-09-21T15:51:19.493Z,14.96
2022-09-21T15:54:34.667Z,15.05
2022-09-21T16:24:25.170Z,14.78
2022-09-21T16:27:42.244Z,14.75
2022-09-21T16:37:51.468Z,14.45
2022-09-21T16:40:22.732Z,14.51
2022-09-21T16:42:52.981Z,14.49
2022-09-21T16:45:38.902Z,14.48
2022-09-21T16:48:08.210Z,14.45
2022-09-21T16:53:26.757Z,14.41
2022-09-21T16:55:57.336Z,14.42
2022-09-21T17:01:11.633Z,14.40
2022-09-21T17:03:42.254Z,14.34
2022-09-21T17:06:22.586Z,14.36
2022-09-21T17:08:50.223Z,14.39
2022-09-21T17:11:30.001Z,14.32
2022-09-21T17:14:10.025Z,14.41
2022-09-21T17:16:48.052Z,14.23
2022-09-21T17:56:53.498Z,13.48
2022-09-21T17:59:41.184Z,13.51
2022-09-21T18:02:47.963Z,13.46
2022-09-21T18:05:29.782Z,13.30
2022-09-21T18:08:23.154Z,13.46
2022-09-21T18:34:07.695Z,12.93
2022-09-21T18:36:38.301Z,12.86
2022-09-21T18:39:41.577Z,12.76
2022-09-21T18:42:26.891Z,12.88
2022-09-21T18:45:05.397Z,12.69
2022-09-21T18:47:44.649Z,12.62
2022-09-21T19:08:03.908Z,12.60
2022-09-21T19:10:59.267Z,12.58
2022-09-21T19:14:33.947Z,12.72
2022-09-21T19:17:19.087Z,12.71
2022-09-21T19:20:30.979Z,12.50
2022-09-21T19:33:03.293Z,12.59
2022-09-21T21:22:22.688Z,11.99
2022-09-21T21:24:50.671Z,11.82
2022-09-21T21:27:22.446Z,11.84
2022-09-21T21:29:53.586Z,11.84
2022-09-21T21:32:25.700Z,11.83
2022-09-21T21:34:55.313Z,11.76
2022-09-21T21:37:29.571Z,11.79
2022-09-21T21:56:58.469Z,11.75
2022-09-21T21:59:26.492Z,11.62
2022-09-21T22:02:05.383Z,11.73
2022-09-21T22:04:41.154Z,11.56
2022-09-21T22:07:26.525Z,11.69
2022-09-21T22:09:57.048Z,11.50
2022-09-21T22:12:28.417Z,11.50
2022-09-21T22:15:03.889Z,11.59
2022-09-21T22:17:35.567Z,11.56
2022-09-21T22:20:07.292Z,11.39
2022-09-21T22:22:41.792Z,11.46
2022-09-21T22:25:12.678Z,11.36
2022-09-21T22:27:43.483Z,11.43
2022-09-21T22:30:17.012Z,11.43
2022-09-21T22:32:49.037Z,11.34
2022-09-21T22:35:21.110Z,11.29
2022-09-21T22:37:55.769Z,11.44
2022-09-21T22:40:29.723Z,11.21
2022-09-21T22:43:03.965Z,11.24
2022-09-21T22:45:38.468Z,11.23
2022-09-21T22:48:10.798Z,11.20
2022-09-21T22:50:42.438Z,11.33
2022-09-21T22:53:21.604Z,11.23
2022-09-21T22:55:58.557Z,11.24
2022-09-21T23:04:19.192Z,11.09
2022-09-21T23:06:49.789Z,11.00
2022-09-21T23:09:18.922Z,11.15
2022-09-21T23:11:49.505Z,11.08
2022-09-21T23:14:17.562Z,10.89
2022-09-21T23:16:44.973Z,11.10
2022-09-21T23:19:21.575Z,10.97
2022-09-21T23:21:50.307Z,10.88
2022-09-21T23:24:18.613Z,10.84
2022-09-21T23:26:45.871Z,10.88
2022-09-21T23:29:16.029Z,10.83
2022-09-21T23:31:46.609Z,10.84
2022-09-21T23:34:14.936Z,10.82
2022-09-21T23:36:42.648Z,10.78
2022-09-21T23:39:12.017Z,10.75
2022-09-21T23:41:39.343Z,10.74
2022-09-21T23:44:06.982Z,10.66
2022-09-21T23:46:36.267Z,10.72
2022-09-21T23:49:04.032Z,10.76
2022-09-21T23:51:31.362Z,10.76
2022-09-21T23:53:58.724Z,10.75
2022-09-21T23:56:25.870Z,10.70
2022-09-21T23:58:56.609Z,10.59
